Time;durP1;ratioP1;P1;durP2;ratioP2;P2;SDS_P1;SDS_P2;PMS_P1;PMS_P2;Temp;Humidity;BMP_temperature;BMP_pressure;BME280_temperature;BME280_humidity;BME280_pressure;Samples;Min_cycle;Max_cycle;Signal;HPM_P1;HPM_P2
2023/09/01 00:00:12;;;;;;;7.00;2.70;;;12.00;99.90;;;;;;4975046;28;20651;-78
2023/09/01 00:02:38;;;;;;;7.17;2.93;;;12.00;99.90;;;;;;4974221;28;20206;-78
2023/09/01 00:05:05;;;;;;;6.97;2.67;;;11.90;99.90;;;;;;4974638;28;20186;-78
2023/09/01 00:07:31;;;;;;;7.17;3.20;;;11.90;99.90;;;;;;4974797;28;20190;-78
2023/09/01 00:09:56;;;;;;;5.40;2.90;;;11.90;99.90;;;;;;4973210;28;20210;-78
2023/09/01 00:12:22;;;;;;;6.73;3.10;;;11.90;99.90;;;;;;4973067;28;20194;-77
2023/09/01 00:14:47;;;;;;;9.43;3.03;;;11.90;99.90;;;;;;4974760;28;20186;-78
2023/09/01 00:17:14;;;;;;;7.57;2.83;;;11.90;99.90;;;;;;4973681;28;20182;-80
2023/09/01 00:19:40;;;;;;;7.37;3.27;;;11.90;99.90;;;;;;4974485;28;20182;-78
2023/09/01 00:22:05;;;;;;;8.13;3.13;;;11.90;99.90;;;;;;4973054;28;20208;-78
2023/09/01 00:24:34;;;;;;;5.97;3.03;;;12.00;99.90;;;;;;4973801;28;20178;-77
2023/09/01 00:27:00;;;;;;;8.10;2.90;;;12.00;99.90;;;;;;4973100;28;20182;-78
2023/09/01 00:29:26;;;;;;;12.67;3.03;;;12.00;99.90;;;;;;4974399;28;20204;-78
2023/09/01 00:31:52;;;;;;;7.97;3.30;;;12.00;99.90;;;;;;4974237;28;20562;-77
2023/09/01 00:34:18;;;;;;;8.73;3.27;;;12.10;99.90;;;;;;4973314;28;20321;-78
2023/09/01 00:36:44;;;;;;;12.40;3.27;;;12.10;99.90;;;;;;4973017;28;20182;-77
2023/09/01 00:39:09;;;;;;;6.63;3.20;;;12.00;99.90;;;;;;4973122;28;20198;-78
2023/09/01 00:41:36;;;;;;;7.57;2.80;;;12.20;99.90;;;;;;4974349;28;20198;-77
2023/09/01 00:44:03;;;;;;;5.63;2.93;;;12.20;99.90;;;;;;4973301;28;20190;-78
2023/09/01 00:46:30;;;;;;;7.80;3.17;;;12.20;99.90;;;;;;4973028;28;20697;-78
2023/09/01 00:48:57;;;;;;;7.43;3.03;;;12.20;99.90;;;;;;4972718;28;20277;-78
2023/09/01 00:51:25;;;;;;;10.73;3.37;;;12.30;99.90;;;;;;4972993;28;20491;-78
2023/09/01 00:53:51;;;;;;;6.40;2.90;;;12.30;99.90;;;;;;4974567;28;20178;-78
2023/09/01 00:56:18;;;;;;;8.13;2.73;;;12.30;99.90;;;;;;4974356;28;20638;-78
2023/09/01 00:58:44;;;;;;;5.77;2.50;;;12.30;99.90;;;;;;4974408;28;20245;-77
2023/09/01 01:01:09;;;;;;;10.53;3.20;;;12.30;99.90;;;;;;4973155;28;20178;-78
2023/09/01 01:03:35;;;;;;;8.47;2.87;;;12.30;99.90;;;;;;4973588;28;20642;-78
2023/09/01 01:06:18;;;;;;;5.83;3.20;;;12.30;99.90;;;;;;4979108;28;20186;-79
2023/09/01 01:09:08;;;;;;;5.10;2.83;;;12.40;99.90;;;;;;4977145;28;20182;-78
2023/09/01 01:12:29;;;;;;;7.60;3.00;;;12.40;99.90;;;;;;4978197;28;20202;-78
2023/09/01 01:14:56;;;;;;;5.60;2.60;;;12.40;99.90;;;;;;4961629;28;20265;-78
2023/09/01 01:17:23;;;;;;;9.83;3.77;;;12.40;99.90;;;;;;4978332;28;20182;-78
2023/09/01 01:19:54;;;;;;;8.27;3.20;;;12.50;99.90;;;;;;4978154;28;20258;-78
2023/09/01 01:22:31;;;;;;;9.53;3.50;;;12.50;99.90;;;;;;4976603;28;20206;-79
2023/09/01 01:24:57;;;;;;;10.07;3.73;;;12.50;99.90;;;;;;4978044;28;20174;-78
2023/09/01 01:27:23;;;;;;;7.17;3.97;;;12.50;99.90;;;;;;4977731;28;20178;-78
2023/09/01 01:29:48;;;;;;;8.53;3.47;;;12.50;99.90;;;;;;4978034;28;20204;-78
2023/09/01 01:32:14;;;;;;;6.73;3.10;;;12.50;99.90;;;;;;4977704;28;20194;-78
2023/09/01 01:34:49;;;;;;;7.93;3.80;;;12.50;99.90;;;;;;4977824;28;20249;-78
2023/09/01 01:37:32;;;;;;;8.13;3.33;;;12.50;99.90;;;;;;4977902;28;20642;-78
2023/09/01 01:40:04;;;;;;;7.53;3.13;;;12.60;99.90;;;;;;4977049;28;20277;-78
2023/09/01 01:42:33;;;;;;;4.80;2.83;;;12.60;99.90;;;;;;4976141;28;20245;-78
2023/09/01 01:45:00;;;;;;;9.20;3.23;;;12.60;99.90;;;;;;4976332;28;20189;-78
2023/09/01 01:47:26;;;;;;;6.70;3.30;;;12.60;99.90;;;;;;4977769;28;20548;-78
2023/09/01 01:49:52;;;;;;;8.00;3.40;;;12.60;99.90;;;;;;4976284;28;20624;-78
2023/09/01 01:52:17;;;;;;;6.53;3.33;;;12.60;99.90;;;;;;4975627;28;20221;-78
2023/09/01 01:54:43;;;;;;;5.93;3.07;;;12.60;99.90;;;;;;4976315;28;20210;-78
2023/09/01 01:57:14;;;;;;;10.43;3.60;;;12.60;99.90;;;;;;4976943;28;20177;-78
2023/09/01 01:59:40;;;;;;;7.17;3.30;;;12.60;99.90;;;;;;4977455;28;20155;-78
2023/09/01 02:02:06;;;;;;;7.63;3.03;;;12.60;99.90;;;;;;4977623;28;20569;-78
2023/09/01 02:04:32;;;;;;;12.37;3.67;;;12.60;99.90;;;;;;4976254;28;20655;-78
2023/09/01 02:06:58;;;;;;;7.20;3.17;;;12.40;99.90;;;;;;4977688;28;20175;-78
2023/09/01 02:09:23;;;;;;;9.50;3.47;;;12.60;99.90;;;;;;4977380;28;20406;-78
2023/09/01 02:11:49;;;;;;;7.60;3.57;;;12.50;99.90;;;;;;4977117;28;20191;-78
2023/09/01 02:14:14;;;;;;;7.77;3.57;;;12.60;99.90;;;;;;4975634;28;20179;-78
2023/09/01 02:16:40;;;;;;;8.50;4.20;;;12.60;99.90;;;;;;4974395;28;20249;-78
2023/09/01 02:19:09;;;;;;;8.40;3.90;;;12.50;99.90;;;;;;4976620;28;20260;-78
2023/09/01 02:21:34;;;;;;;8.00;3.67;;;12.50;99.90;;;;;;4976032;28;20206;-78
2023/09/01 02:24:00;;;;;;;10.00;4.10;;;12.60;99.90;;;;;;4977086;28;20170;-78
2023/09/01 02:26:26;;;;;;;7.83;3.83;;;12.60;99.90;;;;;;4975788;28;20266;-78
2023/09/01 02:28:51;;;;;;;7.10;3.97;;;12.60;99.90;;;;;;4976016;28;20179;-78
2023/09/01 02:31:17;;;;;;;8.83;3.97;;;12.60;99.90;;;;;;4976827;28;20244;-78
2023/09/01 02:33:43;;;;;;;13.37;3.90;;;12.60;99.90;;;;;;4976493;28;20558;-78
2023/09/01 02:36:23;;;;;;;7.97;3.57;;;12.60;99.90;;;;;;4975789;28;20265;-78
2023/09/01 02:38:49;;;;;;;13.07;3.37;;;12.60;99.90;;;;;;4976838;28;20190;-78
2023/09/01 02:41:14;;;;;;;8.33;3.37;;;12.60;99.90;;;;;;4976875;28;20189;-78
2023/09/01 02:43:40;;;;;;;10.93;4.37;;;12.60;99.90;;;;;;4975460;28;20286;-78
2023/09/01 02:46:05;;;;;;;10.73;3.40;;;12.70;99.90;;;;;;4976785;28;20201;-78
2023/09/01 02:48:31;;;;;;;6.40;3.57;;;12.70;99.90;;;;;;4976790;28;20540;-78
2023/09/01 02:50:58;;;;;;;7.13;3.20;;;12.70;99.90;;;;;;4976341;28;20209;-78
2023/09/01 02:53:24;;;;;;;12.17;3.33;;;12.70;99.90;;;;;;4976822;28;20228;-78
2023/09/01 02:55:49;;;;;;;9.87;3.43;;;12.70;99.90;;;;;;4976925;28;20249;-78
2023/09/01 02:58:15;;;;;;;6.60;3.10;;;12.70;99.90;;;;;;4975031;28;20550;-78
2023/09/01 03:00:40;;;;;;;7.37;3.30;;;12.70;99.90;;;;;;4976744;28;20186;-78
2023/09/01 03:03:06;;;;;;;10.90;3.30;;;12.80;99.90;;;;;;4976293;28;20202;-78
2023/09/01 03:05:34;;;;;;;8.57;3.43;;;12.80;99.90;;;;;;4974993;28;20216;-78
2023/09/01 03:07:59;;;;;;;11.93;3.50;;;12.80;99.90;;;;;;4974636;28;20210;-78
2023/09/01 03:10:25;;;;;;;6.37;3.50;;;12.80;99.90;;;;;;4976271;28;20201;-78
2023/09/01 03:12:50;;;;;;;8.00;3.57;;;12.80;99.90;;;;;;4974590;28;20272;-77
2023/09/01 03:15:16;;;;;;;8.43;3.60;;;12.80;99.90;;;;;;4975759;28;20614;-78
2023/09/01 03:17:42;;;;;;;9.20;3.57;;;12.80;99.90;;;;;;4975678;28;20213;-78
2023/09/01 03:20:10;;;;;;;7.00;3.10;;;12.90;99.90;;;;;;4976159;28;20175;-78
2023/09/01 03:22:37;;;;;;;9.87;3.53;;;12.90;99.90;;;;;;4974477;28;20286;-77
2023/09/01 03:25:03;;;;;;;9.67;3.27;;;12.90;99.90;;;;;;4974505;28;20186;-78
2023/09/01 03:27:30;;;;;;;7.27;3.30;;;12.90;99.90;;;;;;4974144;28;20577;-78
2023/09/01 03:29:56;;;;;;;8.30;3.77;;;12.80;99.90;;;;;;4974500;28;20208;-78
2023/09/01 03:32:22;;;;;;;9.60;3.20;;;12.90;99.90;;;;;;4975473;28;20194;-79
2023/09/01 03:34:48;;;;;;;4.67;3.03;;;13.00;99.90;;;;;;4975627;28;20178;-78
2023/09/01 03:37:13;;;;;;;11.23;3.37;;;12.90;99.90;;;;;;4975970;28;20225;-78
2023/09/01 03:39:39;;;;;;;10.27;3.53;;;13.00;99.90;;;;;;4975537;28;20256;-78
2023/09/01 03:42:05;;;;;;;6.73;2.93;;;13.00;99.90;;;;;;4975498;28;20210;-78
2023/09/01 03:44:30;;;;;;;10.40;3.50;;;13.00;99.90;;;;;;4977182;28;20179;-78
2023/09/01 03:46:56;;;;;;;6.87;2.80;;;13.00;99.90;;;;;;4974894;28;20178;-78
2023/09/01 03:49:22;;;;;;;4.90;2.90;;;13.00;99.90;;;;;;4973588;28;20709;-78
2023/09/01 03:51:47;;;;;;;10.47;3.53;;;13.00;99.90;;;;;;4975068;28;20270;-78
2023/09/01 03:54:13;;;;;;;5.63;2.73;;;13.00;99.90;;;;;;4973758;28;20189;-78
2023/09/01 03:56:38;;;;;;;8.30;2.80;;;13.00;99.90;;;;;;4975094;28;20654;-78
2023/09/01 03:59:04;;;;;;;4.67;3.00;;;13.10;99.90;;;;;;4973877;28;20186;-78
2023/09/01 04:01:30;;;;;;;9.30;3.50;;;13.00;99.90;;;;;;4974980;28;20193;-78
2023/09/01 04:03:56;;;;;;;5.27;3.00;;;13.10;99.90;;;;;;4973522;28;20553;-78
2023/09/01 04:06:22;;;;;;;5.20;2.83;;;13.10;99.90;;;;;;4975120;28;20171;-78
2023/09/01 04:08:47;;;;;;;7.73;3.20;;;13.10;99.90;;;;;;4974765;28;20194;-78
2023/09/01 04:11:13;;;;;;;9.03;3.43;;;13.10;99.90;;;;;;4973228;28;20201;-78
2023/09/01 04:13:39;;;;;;;8.90;3.40;;;13.10;99.90;;;;;;4973228;28;20182;-78
2023/09/01 04:16:04;;;;;;;10.20;3.30;;;13.10;99.90;;;;;;4973633;28;20343;-77
2023/09/01 04:18:32;;;;;;;8.27;3.23;;;13.10;99.90;;;;;;4973482;28;20706;-78
2023/09/01 04:20:57;;;;;;;9.97;3.53;;;13.10;99.90;;;;;;4974335;28;20198;-77
2023/09/01 04:23:23;;;;;;;7.33;3.20;;;13.10;99.90;;;;;;4974240;28;20643;-77
2023/09/01 04:25:49;;;;;;;8.43;3.23;;;13.20;99.90;;;;;;4974195;28;20184;-77
2023/09/01 04:28:15;;;;;;;8.87;3.10;;;13.20;99.90;;;;;;4973082;28;20212;-77
2023/09/01 04:30:43;;;;;;;5.57;2.90;;;13.20;99.90;;;;;;4974382;28;20665;-77
2023/09/01 04:33:08;;;;;;;6.30;3.43;;;13.20;99.90;;;;;;4973076;28;20198;-77
2023/09/01 04:35:34;;;;;;;7.90;3.27;;;13.20;99.90;;;;;;4974275;28;20265;-77
2023/09/01 04:38:00;;;;;;;5.23;3.33;;;13.30;99.90;;;;;;4974362;28;20181;-78
2023/09/01 04:40:26;;;;;;;5.70;3.27;;;13.30;99.90;;;;;;4972898;28;20186;-78
2023/09/01 04:42:52;;;;;;;7.23;3.30;;;13.30;99.90;;;;;;4973660;28;20295;-78
2023/09/01 04:45:18;;;;;;;7.57;3.40;;;13.30;99.90;;;;;;4972690;28;20649;-76
2023/09/01 04:47:44;;;;;;;8.87;3.57;;;13.30;99.90;;;;;;4973752;28;20209;-76
2023/09/01 04:50:09;;;;;;;9.10;2.90;;;13.40;99.90;;;;;;4974199;28;20205;-80
2023/09/01 04:52:36;;;;;;;5.83;2.60;;;13.40;99.90;;;;;;4973412;28;20198;-77
2023/09/01 04:55:03;;;;;;;6.13;3.00;;;13.40;99.90;;;;;;4973986;28;20177;-77
2023/09/01 04:57:30;;;;;;;10.93;2.73;;;13.40;99.90;;;;;;4972568;28;20244;-77
2023/09/01 04:59:56;;;;;;;6.23;3.03;;;13.40;99.90;;;;;;4974108;28;20178;-76
2023/09/01 05:02:21;;;;;;;5.33;3.00;;;13.40;99.90;;;;;;4973913;28;20346;-76
2023/09/01 05:04:47;;;;;;;4.93;3.07;;;13.50;99.90;;;;;;4972309;28;20185;-76
2023/09/01 05:07:12;;;;;;;3.73;2.80;;;13.50;99.90;;;;;;4973457;28;20175;-76
2023/09/01 05:09:38;;;;;;;4.33;2.53;;;13.50;99.90;;;;;;4973643;28;20201;-76
2023/09/01 05:12:04;;;;;;;5.57;2.93;;;13.50;99.90;;;;;;4973504;28;20288;-76
2023/09/01 05:14:29;;;;;;;8.47;3.40;;;13.50;99.90;;;;;;4972093;28;20189;-76
2023/09/01 05:16:56;;;;;;;9.97;3.00;;;13.60;99.90;;;;;;4972102;28;20183;-75
2023/09/01 05:19:21;;;;;;;5.77;3.10;;;13.60;99.90;;;;;;4973651;28;20198;-76
2023/09/01 05:21:48;;;;;;;5.10;2.90;;;13.60;99.90;;;;;;4973206;28;20621;-77
2023/09/01 05:24:14;;;;;;;5.40;3.20;;;13.70;99.90;;;;;;4971946;28;20194;-76
2023/09/01 05:26:39;;;;;;;5.87;3.13;;;13.70;99.90;;;;;;4971843;28;20179;-76
2023/09/01 05:29:05;;;;;;;7.60;3.23;;;13.70;99.90;;;;;;4973289;28;20183;-76
2023/09/01 05:31:31;;;;;;;8.30;3.30;;;13.80;99.90;;;;;;4971826;28;20214;-76
2023/09/01 05:33:56;;;;;;;5.93;3.07;;;13.80;99.90;;;;;;4973189;28;20181;-76
2023/09/01 05:36:22;;;;;;;8.53;2.93;;;13.80;99.90;;;;;;4973197;28;20273;-76
2023/09/01 05:38:47;;;;;;;5.50;2.77;;;13.80;99.90;;;;;;4973060;28;20265;-75
2023/09/01 05:41:14;;;;;;;7.60;3.10;;;13.90;99.90;;;;;;4971746;28;20182;-76
2023/09/01 05:43:40;;;;;;;3.43;2.83;;;13.90;99.90;;;;;;4973055;28;20190;-77
2023/09/01 05:46:05;;;;;;;3.73;3.10;;;13.90;99.90;;;;;;4971940;28;20178;-76
2023/09/01 05:48:31;;;;;;;7.17;3.20;;;14.00;99.90;;;;;;4971918;28;20329;-76
2023/09/01 05:50:57;;;;;;;4.17;2.87;;;14.00;99.90;;;;;;4976007;28;20202;-77
2023/09/01 05:53:23;;;;;;;4.83;3.13;;;14.00;99.90;;;;;;4977700;28;20198;-78
2023/09/01 05:55:48;;;;;;;6.27;3.07;;;14.10;99.90;;;;;;4976159;28;20186;-76
2023/09/01 05:58:14;;;;;;;8.73;3.10;;;14.10;99.90;;;;;;4975298;28;20189;-76
2023/09/01 06:00:40;;;;;;;10.10;3.33;;;14.20;99.90;;;;;;4976620;28;20182;-76
2023/09/01 06:03:05;;;;;;;5.57;3.00;;;14.20;99.90;;;;;;4976383;28;20194;-76
2023/09/01 06:05:31;;;;;;;6.30;3.47;;;14.30;99.90;;;;;;4976466;28;20201;-77
2023/09/01 06:07:57;;;;;;;8.40;3.33;;;14.30;99.90;;;;;;4976392;28;20229;-77
2023/09/01 06:10:22;;;;;;;5.30;3.13;;;14.40;99.90;;;;;;4976303;28;20202;-76
2023/09/01 06:12:48;;;;;;;5.60;3.13;;;14.40;99.90;;;;;;4974814;28;20210;-76
2023/09/01 06:15:13;;;;;;;7.23;2.90;;;14.50;99.90;;;;;;4974996;28;20256;-76
2023/09/01 06:17:39;;;;;;;7.97;2.87;;;14.50;99.90;;;;;;4975162;28;20175;-77
2023/09/01 06:20:06;;;;;;;2.93;2.60;;;14.50;99.90;;;;;;4976047;28;20237;-76
2023/09/01 06:22:35;;;;;;;6.20;2.93;;;14.50;99.90;;;;;;4974890;28;20202;-77
2023/09/01 06:25:02;;;;;;;6.53;2.97;;;14.60;99.90;;;;;;4976726;28;20221;-76
2023/09/01 06:27:27;;;;;;;4.53;2.90;;;14.60;99.90;;;;;;4977171;28;20182;-78
2023/09/01 06:29:56;;;;;;;5.07;3.00;;;14.60;99.90;;;;;;4978403;28;20294;-78
2023/09/01 06:32:22;;;;;;;3.90;2.63;;;14.70;99.90;;;;;;4977860;28;20649;-78
2023/09/01 06:34:47;;;;;;;7.00;2.93;;;14.70;99.90;;;;;;4975482;28;20178;-78
2023/09/01 06:37:13;;;;;;;2.97;2.40;;;14.80;99.90;;;;;;4975482;28;20190;-79
2023/09/01 06:39:38;;;;;;;4.70;3.07;;;14.80;99.90;;;;;;4976701;28;20182;-79
2023/09/01 06:42:06;;;;;;;4.60;2.30;;;14.90;99.90;;;;;;4976234;28;20217;-78
2023/09/01 06:44:31;;;;;;;7.83;2.70;;;14.90;99.90;;;;;;4977322;28;20477;-78
2023/09/01 06:46:57;;;;;;;6.03;2.70;;;15.00;99.90;;;;;;4975246;28;20297;-78
2023/09/01 06:49:23;;;;;;;4.63;2.53;;;15.00;99.90;;;;;;4975118;28;20182;-78
2023/09/01 06:51:48;;;;;;;6.03;2.83;;;15.00;99.90;;;;;;4975060;28;20670;-78
2023/09/01 06:54:14;;;;;;;5.00;2.93;;;15.10;99.90;;;;;;4975715;28;20193;-78
2023/09/01 06:56:39;;;;;;;6.43;2.60;;;15.10;99.90;;;;;;4975028;28;20228;-79
2023/09/01 06:59:05;;;;;;;4.40;3.57;;;15.20;99.90;;;;;;4974854;28;20712;-78
2023/09/01 07:01:30;;;;;;;8.47;3.57;;;15.20;99.90;;;;;;4975441;28;20226;-78
2023/09/01 07:03:56;;;;;;;4.47;3.13;;;15.20;99.90;;;;;;4975119;28;20262;-78
2023/09/01 07:06:22;;;;;;;3.77;2.60;;;15.30;99.90;;;;;;4976205;28;20182;-78
2023/09/01 07:08:47;;;;;;;5.97;2.73;;;15.40;99.90;;;;;;4974881;28;20182;-78
2023/09/01 07:11:14;;;;;;;3.20;2.30;;;15.40;99.90;;;;;;4976170;28;20276;-78
2023/09/01 07:13:41;;;;;;;2.50;2.17;;;15.40;99.90;;;;;;4976336;28;20170;-78
2023/09/01 07:16:06;;;;;;;4.43;2.53;;;15.40;99.90;;;;;;4975989;28;20645;-78
2023/09/01 07:18:32;;;;;;;3.63;2.03;;;15.50;99.90;;;;;;4975090;28;20205;-78
2023/09/01 07:20:59;;;;;;;5.27;2.40;;;15.50;99.90;;;;;;4974549;28;20186;-78
2023/09/01 07:23:28;;;;;;;4.63;2.50;;;15.60;99.90;;;;;;4975893;28;20178;-79
2023/09/01 07:25:54;;;;;;;4.07;2.30;;;15.60;99.90;;;;;;4977433;28;20179;-79
2023/09/01 07:28:21;;;;;;;2.37;2.03;;;15.70;99.90;;;;;;4974625;28;20232;-79
2023/09/01 07:30:46;;;;;;;4.63;2.33;;;15.80;99.90;;;;;;4975446;28;20209;-79
2023/09/01 07:33:12;;;;;;;4.23;2.40;;;15.80;99.90;;;;;;4976679;28;20194;-79
2023/09/01 07:35:38;;;;;;;4.80;1.90;;;15.80;99.90;;;;;;4976982;28;20178;-79
2023/09/01 07:38:04;;;;;;;5.10;2.20;;;15.90;99.90;;;;;;4975528;28;20190;-79
2023/09/01 07:40:32;;;;;;;3.10;1.93;;;16.00;99.90;;;;;;4975228;28;20186;-79
2023/09/01 07:42:59;;;;;;;3.03;1.90;;;15.90;99.90;;;;;;4976486;28;20220;-80
2023/09/01 07:45:26;;;;;;;5.23;1.90;;;16.00;99.90;;;;;;4975699;28;20178;-79
2023/09/01 07:47:51;;;;;;;4.90;2.40;;;16.00;99.90;;;;;;4975403;28;20229;-79
2023/09/01 07:50:17;;;;;;;3.23;1.73;;;16.00;99.90;;;;;;4975119;28;20237;-79
2023/09/01 07:52:43;;;;;;;4.40;1.67;;;16.00;99.90;;;;;;4976535;28;20198;-79
2023/09/01 07:55:08;;;;;;;1.93;1.50;;;16.00;99.90;;;;;;4975181;28;20205;-79
2023/09/01 07:57:34;;;;;;;3.27;1.70;;;16.10;99.90;;;;;;4977079;28;20252;-79
2023/09/01 07:59:59;;;;;;;2.97;2.03;;;16.10;99.90;;;;;;4976772;28;20258;-79
2023/09/01 08:02:25;;;;;;;3.97;2.00;;;16.10;99.90;;;;;;4975583;28;20198;-79
2023/09/01 08:04:51;;;;;;;4.97;1.90;;;16.20;99.90;;;;;;4975486;28;20185;-79
2023/09/01 08:07:16;;;;;;;3.57;1.83;;;16.20;99.90;;;;;;4976885;28;20174;-79
2023/09/01 08:09:42;;;;;;;3.77;1.90;;;16.30;99.90;;;;;;4976934;28;20213;-79
2023/09/01 08:12:08;;;;;;;4.77;1.80;;;16.30;99.90;;;;;;4976065;28;20216;-79
2023/09/01 08:14:34;;;;;;;3.07;2.20;;;16.30;99.90;;;;;;4975951;28;20277;-80
2023/09/01 08:16:59;;;;;;;1.60;1.43;;;16.40;99.90;;;;;;4974926;28;20174;-79
2023/09/01 08:19:25;;;;;;;2.43;1.73;;;16.40;99.90;;;;;;4976219;28;20202;-79
2023/09/01 08:21:50;;;;;;;7.93;2.00;;;16.50;99.90;;;;;;4974709;28;20194;-80
2023/09/01 08:24:16;;;;;;;3.97;1.70;;;16.50;99.90;;;;;;4976061;28;20178;-79
2023/09/01 08:26:41;;;;;;;1.70;1.60;;;16.50;99.90;;;;;;4975320;28;20171;-79
2023/09/01 08:29:07;;;;;;;3.67;2.00;;;16.60;99.90;;;;;;4974957;28;20174;-79
2023/09/01 08:31:33;;;;;;;4.77;1.80;;;16.50;99.90;;;;;;4975493;28;20292;-80
2023/09/01 08:33:59;;;;;;;5.57;1.70;;;16.60;99.90;;;;;;4975784;28;20170;-79
2023/09/01 08:36:26;;;;;;;4.10;1.50;;;16.60;99.90;;;;;;4976197;28;20224;-79
2023/09/01 08:38:51;;;;;;;2.40;1.40;;;16.60;99.90;;;;;;4975640;28;20617;-79
2023/09/01 08:41:17;;;;;;;3.67;1.90;;;16.80;99.90;;;;;;4975231;28;20178;-78
2023/09/01 08:43:45;;;;;;;2.87;1.80;;;16.60;99.90;;;;;;4975593;28;20228;-79
2023/09/01 08:46:15;;;;;;;4.57;1.60;;;16.60;99.90;;;;;;4982563;28;20174;-79
2023/09/01 08:48:41;;;;;;;6.10;2.40;;;16.60;99.90;;;;;;4986829;28;20265;-78
2023/09/01 08:51:08;;;;;;;7.37;1.70;;;16.60;99.90;;;;;;4978242;28;20206;-79
2023/09/01 08:53:35;;;;;;;3.60;2.23;;;16.60;99.90;;;;;;4974772;28;20182;-78
2023/09/01 08:56:01;;;;;;;3.50;1.80;;;16.60;99.90;;;;;;4973620;28;20182;-78
2023/09/01 08:58:26;;;;;;;3.87;2.07;;;16.60;99.90;;;;;;4975203;28;20202;-78
2023/09/01 09:00:52;;;;;;;3.20;1.80;;;16.50;99.90;;;;;;4975915;28;20178;-78
2023/09/01 09:03:17;;;;;;;4.23;2.17;;;16.40;99.90;;;;;;4975837;28;20216;-77
2023/09/01 09:05:46;;;;;;;2.23;2.00;;;16.50;99.90;;;;;;4975558;28;20182;-76
2023/09/01 09:08:12;;;;;;;5.10;2.57;;;16.40;99.90;;;;;;4972714;28;20189;-77
2023/09/01 09:10:48;;;;;;;4.87;2.80;;;16.40;99.90;;;;;;4972891;28;20293;-77
2023/09/01 09:13:25;;;;;;;4.47;2.20;;;16.40;99.90;;;;;;4974031;28;20253;-77
2023/09/01 09:16:12;;;;;;;7.43;2.30;;;16.40;99.90;;;;;;4974440;28;20209;-77
2023/09/01 09:18:40;;;;;;;3.40;2.40;;;16.40;99.90;;;;;;4973631;28;20646;-77
2023/09/01 09:21:24;;;;;;;4.40;2.33;;;16.30;99.90;;;;;;4972733;28;20689;-79
2023/09/01 09:23:50;;;;;;;4.60;2.83;;;16.30;99.90;;;;;;4974123;28;20182;-77
2023/09/01 09:26:16;;;;;;;4.67;2.83;;;16.30;99.90;;;;;;4977387;28;20538;-77
2023/09/01 09:28:43;;;;;;;4.00;2.80;;;16.30;99.90;;;;;;4976353;28;20190;-77
2023/09/01 09:31:08;;;;;;;7.77;2.83;;;16.30;99.90;;;;;;4977909;28;20198;-77
2023/09/01 09:33:34;;;;;;;5.40;3.00;;;16.30;99.90;;;;;;4977512;28;20209;-77
2023/09/01 09:36:03;;;;;;;5.13;2.73;;;16.30;99.90;;;;;;4976479;28;20201;-77
2023/09/01 09:38:43;;;;;;;5.63;2.90;;;16.20;99.90;;;;;;4976065;28;20269;-77
2023/09/01 09:41:08;;;;;;;3.77;2.63;;;16.20;99.90;;;;;;4977468;28;20182;-77
2023/09/01 09:43:54;;;;;;;5.23;2.80;;;16.20;99.90;;;;;;4975825;28;20221;-78
2023/09/01 09:46:21;;;;;;;10.10;3.70;;;16.20;99.90;;;;;;4975777;28;20190;-77
2023/09/01 09:48:47;;;;;;;5.20;3.03;;;16.20;99.90;;;;;;4976973;28;20178;-77
2023/09/01 09:51:17;;;;;;;2.97;2.60;;;16.20;99.90;;;;;;4978814;28;20210;-77
2023/09/01 09:53:46;;;;;;;5.27;3.17;;;16.20;99.90;;;;;;4976304;28;20178;-77
2023/09/01 09:56:32;;;;;;;4.73;2.70;;;16.20;99.90;;;;;;4977919;28;20702;-78
2023/09/01 09:59:05;;;;;;;3.53;2.50;;;16.20;99.90;;;;;;4978241;28;20241;-78
2023/09/01 10:01:35;;;;;;;4.50;2.57;;;16.20;99.90;;;;;;4978340;28;20222;-77
2023/09/01 10:04:04;;;;;;;7.73;2.90;;;16.30;99.90;;;;;;4977291;28;20222;-77
2023/09/01 10:06:31;;;;;;;4.13;2.40;;;16.20;99.90;;;;;;4977693;28;20211;-77
2023/09/01 10:08:59;;;;;;;5.03;3.03;;;16.20;99.90;;;;;;4977969;28;20257;-77
2023/09/01 10:11:28;;;;;;;3.53;2.10;;;16.20;99.90;;;;;;4978160;28;20269;-77
2023/09/01 10:13:55;;;;;;;6.93;2.37;;;16.20;99.90;;;;;;4978185;28;20178;-77
2023/09/01 10:16:21;;;;;;;7.03;2.00;;;16.30;99.90;;;;;;4978070;28;20178;-78
2023/09/01 10:18:48;;;;;;;2.80;2.30;;;16.30;99.90;;;;;;4979240;28;20233;-79
2023/09/01 10:21:15;;;;;;;3.10;2.20;;;16.10;99.90;;;;;;4978117;28;20205;-77
2023/09/01 10:23:42;;;;;;;3.43;1.87;;;16.30;99.90;;;;;;4976739;28;20174;-77
2023/09/01 10:26:26;;;;;;;3.17;2.03;;;16.30;99.90;;;;;;4976429;28;20178;-77
2023/09/01 10:28:59;;;;;;;4.53;1.80;;;16.50;99.90;;;;;;4976267;28;20173;-77
2023/09/01 10:31:25;;;;;;;3.33;2.03;;;16.30;99.90;;;;;;4975291;28;20221;-76
2023/09/01 10:34:13;;;;;;;2.53;1.80;;;16.40;99.90;;;;;;4974595;28;20554;-76
2023/09/01 10:36:40;;;;;;;5.00;2.03;;;16.30;99.90;;;;;;4974707;28;20233;-77
2023/09/01 10:39:23;;;;;;;3.27;1.97;;;16.40;99.90;;;;;;4975709;28;20516;-76
2023/09/01 10:42:07;;;;;;;9.63;2.00;;;16.40;99.90;;;;;;4975683;28;20282;-76
2023/09/01 10:47:54;;;;;;;4.60;1.60;;;16.40;99.90;;;;;;4975808;28;20227;-76
2023/09/01 10:50:20;;;;;;;2.20;1.67;;;16.40;99.90;;;;;;4975330;28;20202;-77
2023/09/01 10:53:24;;;;;;;3.27;2.00;;;16.50;99.90;;;;;;4975353;28;20202;-77
2023/09/01 10:56:11;;;;;;;2.73;1.53;;;16.50;99.90;;;;;;4972583;28;20208;-77
2023/09/01 10:58:38;;;;;;;3.03;1.53;;;16.60;99.90;;;;;;4954916;29;20296;-76
2023/09/01 11:01:32;;;;;;;2.37;1.37;;;16.60;99.90;;;;;;4956244;28;20178;-77
2023/09/01 11:04:20;;;;;;;1.83;1.50;;;16.60;99.90;;;;;;4940955;28;20197;-80
2023/09/01 11:06:59;;;;;;;2.30;1.27;;;16.70;99.90;;;;;;4973971;28;20196;-77
2023/09/01 11:09:33;;;;;;;4.00;1.50;;;16.80;99.90;;;;;;4975557;28;20174;-77
2023/09/01 11:12:07;;;;;;;1.70;1.30;;;16.70;99.90;;;;;;4974415;28;20216;-77
2023/09/01 11:14:34;;;;;;;3.07;1.60;;;16.80;99.90;;;;;;4971979;28;20195;-78
2023/09/01 11:17:00;;;;;;;4.23;1.63;;;16.80;99.90;;;;;;4972886;28;20284;-77
2023/09/01 11:19:26;;;;;;;2.63;1.40;;;16.90;99.90;;;;;;4973932;28;20192;-78
2023/09/01 11:21:52;;;;;;;4.43;2.00;;;16.90;99.90;;;;;;4975588;28;20198;-77
2023/09/01 11:24:21;;;;;;;3.40;1.70;;;16.90;99.90;;;;;;4975933;28;20166;-77
2023/09/01 11:26:49;;;;;;;2.57;1.63;;;17.00;99.90;;;;;;4975561;28;20249;-77
2023/09/01 11:29:14;;;;;;;4.00;2.00;;;17.00;99.90;;;;;;4976004;28;20542;-77
2023/09/01 11:31:42;;;;;;;6.20;2.20;;;17.00;99.90;;;;;;4976235;28;20210;-78
2023/09/01 11:34:08;;;;;;;2.10;1.90;;;17.10;99.90;;;;;;4973407;28;20204;-76
2023/09/01 11:36:43;;;;;;;3.60;2.00;;;17.10;99.90;;;;;;4972709;28;20666;-76
2023/09/01 11:39:09;;;;;;;1.83;1.70;;;17.20;99.90;;;;;;4973691;28;20170;-77
2023/09/01 11:41:35;;;;;;;3.23;1.87;;;17.20;99.90;;;;;;4971938;28;20625;-77
2023/09/01 11:44:00;;;;;;;2.53;1.93;;;17.30;99.90;;;;;;4972165;28;20281;-77
2023/09/01 11:46:33;;;;;;;3.00;2.03;;;17.30;99.90;;;;;;4973733;28;20208;-77
2023/09/01 11:49:00;;;;;;;4.07;2.67;;;17.30;99.90;;;;;;4972684;28;20603;-77
2023/09/01 11:51:38;;;;;;;2.87;2.53;;;17.40;99.90;;;;;;4972964;28;20237;-76
2023/09/01 11:54:04;;;;;;;3.17;2.50;;;17.40;99.90;;;;;;4974557;28;20578;-77
2023/09/01 11:56:30;;;;;;;3.30;2.90;;;17.50;99.90;;;;;;4972682;28;20197;-76
2023/09/01 11:58:58;;;;;;;2.60;2.40;;;17.60;99.90;;;;;;4973485;28;20658;-76
2023/09/01 12:01:29;;;;;;;4.47;3.10;;;17.60;99.90;;;;;;4974231;28;20198;-77
2023/09/01 12:04:05;;;;;;;5.43;2.87;;;17.70;99.90;;;;;;4974280;28;20190;-76
2023/09/01 12:06:30;;;;;;;6.53;2.97;;;17.70;99.90;;;;;;4966938;28;20179;-76
2023/09/01 12:09:16;;;;;;;4.83;3.20;;;17.70;99.90;;;;;;4954853;29;20194;-76
2023/09/01 12:12:11;;;;;;;3.80;3.10;;;17.70;99.90;;;;;;4954749;28;20203;-76
2023/09/01 12:14:37;;;;;;;4.67;3.43;;;17.70;99.90;;;;;;4957283;28;20187;-76
2023/09/01 12:17:21;;;;;;;5.47;3.27;;;17.80;99.90;;;;;;4966096;28;20691;-76
2023/09/01 12:19:48;;;;;;;4.50;3.53;;;17.90;99.90;;;;;;4974266;28;20159;-77
2023/09/01 12:22:14;;;;;;;6.23;3.40;;;17.90;99.90;;;;;;4973947;28;20682;-77
2023/09/01 12:24:49;;;;;;;7.30;3.93;;;17.90;99.90;;;;;;4972760;28;20178;-76
2023/09/01 12:27:15;;;;;;;5.40;3.47;;;18.00;99.90;;;;;;4973080;28;20259;-76
2023/09/01 12:29:41;;;;;;;4.13;3.73;;;18.00;99.90;;;;;;4973919;28;20166;-76
2023/09/01 12:32:06;;;;;;;4.90;3.50;;;18.10;99.90;;;;;;4972898;28;20209;-81
2023/09/01 12:34:32;;;;;;;29.57;5.03;;;18.10;99.90;;;;;;4971486;28;20179;-76
2023/09/01 12:36:57;;;;;;;6.20;3.50;;;18.20;99.90;;;;;;4974138;28;20177;-76
2023/09/01 12:39:22;;;;;;;6.03;3.90;;;18.20;99.90;;;;;;4972802;28;20181;-77
2023/09/01 12:41:48;;;;;;;3.80;3.50;;;18.30;99.90;;;;;;4973996;28;20198;-77
2023/09/01 12:44:13;;;;;;;6.53;4.27;;;18.40;99.90;;;;;;4973469;28;20654;-78
2023/09/01 12:46:39;;;;;;;5.07;3.70;;;18.50;99.90;;;;;;4974583;28;20186;-77
2023/09/01 12:49:04;;;;;;;4.53;3.60;;;18.50;99.90;;;;;;4973841;28;20193;-77
2023/09/01 12:51:30;;;;;;;3.47;2.97;;;18.40;99.90;;;;;;4972400;28;20253;-77